sensor_id;sensor_type;location;lat;lon;timestamp;P1;durP1;ratioP1;P2;durP2;ratioP2
68386;SDS011;55338;43.062;25.624;2022-07-23T00:02:17;16.65;;;3.97;;
68386;SDS011;55338;43.062;25.624;2022-07-23T00:04:43;8.93;;;3.93;;
68386;SDS011;55338;43.062;25.624;2022-07-23T00:07:08;10.32;;;3.70;;
68386;SDS011;55338;43.062;25.624;2022-07-23T00:09:34;11.03;;;3.50;;
68386;SDS011;55338;43.062;25.624;2022-07-23T00:12:00;9.70;;;3.63;;
68386;SDS011;55338;43.062;25.624;2022-07-23T00:14:26;8.00;;;3.77;;
68386;SDS011;55338;43.062;25.624;2022-07-23T00:16:51;7.55;;;3.70;;
68386;SDS011;55338;43.062;25.624;2022-07-23T00:19:17;8.93;;;3.70;;
68386;SDS011;55338;43.062;25.624;2022-07-23T00:21:43;7.13;;;3.30;;
68386;SDS011;55338;43.062;25.624;2022-07-23T00:24:09;7.77;;;3.40;;
68386;SDS011;55338;43.062;25.624;2022-07-23T00:26:34;7.23;;;3.17;;
68386;SDS011;55338;43.062;25.624;2022-07-23T00:29:00;5.72;;;3.35;;
68386;SDS011;55338;43.062;25.624;2022-07-23T00:31:26;8.23;;;2.93;;
68386;SDS011;55338;43.062;25.624;2022-07-23T00:33:52;5.85;;;2.85;;
68386;SDS011;55338;43.062;25.624;2022-07-23T00:36:21;7.70;;;3.28;;
68386;SDS011;55338;43.062;25.624;2022-07-23T00:38:49;7.87;;;3.10;;
68386;SDS011;55338;43.062;25.624;2022-07-23T00:41:15;7.05;;;3.38;;
68386;SDS011;55338;43.062;25.624;2022-07-23T00:43:41;8.05;;;3.63;;
68386;SDS011;55338;43.062;25.624;2022-07-23T00:46:07;13.13;;;3.80;;
68386;SDS011;55338;43.062;25.624;2022-07-23T00:48:32;10.40;;;3.57;;
68386;SDS011;55338;43.062;25.624;2022-07-23T00:50:58;9.20;;;3.30;;
68386;SDS011;55338;43.062;25.624;2022-07-23T00:53:24;9.03;;;3.00;;
68386;SDS011;55338;43.062;25.624;2022-07-23T00:55:50;8.07;;;3.45;;
68386;SDS011;55338;43.062;25.624;2022-07-23T00:58:16;8.90;;;3.42;;
68386;SDS011;55338;43.062;25.624;2022-07-23T01:00:43;9.77;;;3.17;;
68386;SDS011;55338;43.062;25.624;2022-07-23T01:03:09;10.10;;;3.50;;
68386;SDS011;55338;43.062;25.624;2022-07-23T01:05:34;7.50;;;3.65;;
68386;SDS011;55338;43.062;25.624;2022-07-23T01:08:00;9.47;;;3.93;;
68386;SDS011;55338;43.062;25.624;2022-07-23T01:10:26;6.30;;;3.33;;
68386;SDS011;55338;43.062;25.624;2022-07-23T01:12:59;10.77;;;3.92;;
68386;SDS011;55338;43.062;25.624;2022-07-23T01:15:32;11.85;;;4.45;;
68386;SDS011;55338;43.062;25.624;2022-07-23T01:18:00;6.78;;;3.78;;
68386;SDS011;55338;43.062;25.624;2022-07-23T01:20:26;7.63;;;3.30;;
68386;SDS011;55338;43.062;25.624;2022-07-23T01:22:52;10.27;;;3.95;;
68386;SDS011;55338;43.062;25.624;2022-07-23T01:25:19;11.77;;;3.80;;
68386;SDS011;55338;43.062;25.624;2022-07-23T01:27:45;9.85;;;3.60;;
68386;SDS011;55338;43.062;25.624;2022-07-23T01:30:11;9.90;;;3.33;;
68386;SDS011;55338;43.062;25.624;2022-07-23T01:32:37;9.75;;;3.97;;
68386;SDS011;55338;43.062;25.624;2022-07-23T01:35:04;6.93;;;4.25;;
68386;SDS011;55338;43.062;25.624;2022-07-23T01:37:31;9.75;;;3.78;;
68386;SDS011;55338;43.062;25.624;2022-07-23T01:39:56;9.30;;;4.07;;
68386;SDS011;55338;43.062;25.624;2022-07-23T01:42:22;7.20;;;3.70;;
68386;SDS011;55338;43.062;25.624;2022-07-23T01:44:48;14.63;;;3.97;;
68386;SDS011;55338;43.062;25.624;2022-07-23T01:47:14;11.05;;;3.78;;
68386;SDS011;55338;43.062;25.624;2022-07-23T01:49:40;9.73;;;4.27;;
68386;SDS011;55338;43.062;25.624;2022-07-23T01:52:06;12.77;;;3.75;;
68386;SDS011;55338;43.062;25.624;2022-07-23T01:54:36;14.00;;;4.32;;
68386;SDS011;55338;43.062;25.624;2022-07-23T01:57:03;21.70;;;4.53;;
68386;SDS011;55338;43.062;25.624;2022-07-23T01:59:29;13.27;;;4.60;;
68386;SDS011;55338;43.062;25.624;2022-07-23T02:01:55;15.57;;;5.32;;
68386;SDS011;55338;43.062;25.624;2022-07-23T02:04:22;13.65;;;4.63;;
68386;SDS011;55338;43.062;25.624;2022-07-23T02:06:49;10.88;;;4.85;;
68386;SDS011;55338;43.062;25.624;2022-07-23T02:09:16;11.97;;;4.67;;
68386;SDS011;55338;43.062;25.624;2022-07-23T02:11:42;11.02;;;4.88;;
68386;SDS011;55338;43.062;25.624;2022-07-23T02:14:08;13.23;;;4.93;;
68386;SDS011;55338;43.062;25.624;2022-07-23T02:16:34;14.40;;;5.43;;
68386;SDS011;55338;43.062;25.624;2022-07-23T02:19:00;17.00;;;5.55;;
68386;SDS011;55338;43.062;25.624;2022-07-23T02:21:26;15.23;;;5.28;;
68386;SDS011;55338;43.062;25.624;2022-07-23T02:23:52;8.20;;;4.53;;
68386;SDS011;55338;43.062;25.624;2022-07-23T02:26:17;16.17;;;5.17;;
68386;SDS011;55338;43.062;25.624;2022-07-23T02:28:43;10.30;;;4.65;;
68386;SDS011;55338;43.062;25.624;2022-07-23T02:31:09;11.87;;;4.73;;
68386;SDS011;55338;43.062;25.624;2022-07-23T02:33:35;13.40;;;4.90;;
68386;SDS011;55338;43.062;25.624;2022-07-23T02:36:00;12.23;;;4.70;;
68386;SDS011;55338;43.062;25.624;2022-07-23T02:38:26;14.45;;;5.82;;
68386;SDS011;55338;43.062;25.624;2022-07-23T02:40:52;9.23;;;4.40;;
68386;SDS011;55338;43.062;25.624;2022-07-23T02:43:18;13.88;;;4.57;;
68386;SDS011;55338;43.062;25.624;2022-07-23T02:45:43;10.13;;;4.47;;
68386;SDS011;55338;43.062;25.624;2022-07-23T02:48:09;10.97;;;4.90;;
68386;SDS011;55338;43.062;25.624;2022-07-23T02:50:37;10.07;;;4.63;;
68386;SDS011;55338;43.062;25.624;2022-07-23T02:53:03;10.45;;;4.50;;
68386;SDS011;55338;43.062;25.624;2022-07-23T02:55:29;10.20;;;4.47;;
68386;SDS011;55338;43.062;25.624;2022-07-23T02:57:56;10.10;;;5.00;;
68386;SDS011;55338;43.062;25.624;2022-07-23T03:00:22;15.55;;;5.72;;
68386;SDS011;55338;43.062;25.624;2022-07-23T03:02:48;11.93;;;5.50;;
68386;SDS011;55338;43.062;25.624;2022-07-23T03:05:14;14.73;;;5.47;;
68386;SDS011;55338;43.062;25.624;2022-07-23T03:07:40;10.63;;;5.57;;
68386;SDS011;55338;43.062;25.624;2022-07-23T03:10:05;20.98;;;6.05;;
68386;SDS011;55338;43.062;25.624;2022-07-23T03:12:31;16.40;;;6.23;;
68386;SDS011;55338;43.062;25.624;2022-07-23T03:14:57;16.15;;;7.05;;
68386;SDS011;55338;43.062;25.624;2022-07-23T03:17:23;25.80;;;7.57;;
68386;SDS011;55338;43.062;25.624;2022-07-23T03:19:49;22.00;;;8.13;;
68386;SDS011;55338;43.062;25.624;2022-07-23T03:22:15;18.50;;;7.00;;
68386;SDS011;55338;43.062;25.624;2022-07-23T03:24:40;15.47;;;7.17;;
68386;SDS011;55338;43.062;25.624;2022-07-23T03:27:18;21.42;;;7.22;;
68386;SDS011;55338;43.062;25.624;2022-07-23T03:29:45;25.23;;;7.82;;
68386;SDS011;55338;43.062;25.624;2022-07-23T03:32:10;25.58;;;8.45;;
68386;SDS011;55338;43.062;25.624;2022-07-23T03:34:36;18.23;;;8.40;;
68386;SDS011;55338;43.062;25.624;2022-07-23T03:37:02;19.42;;;7.22;;
68386;SDS011;55338;43.062;25.624;2022-07-23T03:39:28;18.33;;;7.37;;
68386;SDS011;55338;43.062;25.624;2022-07-23T03:41:54;14.25;;;6.50;;
68386;SDS011;55338;43.062;25.624;2022-07-23T03:44:20;15.95;;;6.80;;
68386;SDS011;55338;43.062;25.624;2022-07-23T03:46:45;21.87;;;6.20;;
68386;SDS011;55338;43.062;25.624;2022-07-23T03:49:11;16.98;;;6.28;;
68386;SDS011;55338;43.062;25.624;2022-07-23T03:51:37;16.20;;;6.60;;
68386;SDS011;55338;43.062;25.624;2022-07-23T03:54:02;18.98;;;6.38;;
68386;SDS011;55338;43.062;25.624;2022-07-23T03:56:28;19.73;;;6.87;;
68386;SDS011;55338;43.062;25.624;2022-07-23T03:58:54;15.43;;;6.55;;
68386;SDS011;55338;43.062;25.624;2022-07-23T04:01:20;18.38;;;6.32;;
68386;SDS011;55338;43.062;25.624;2022-07-23T04:03:46;17.07;;;6.27;;
68386;SDS011;55338;43.062;25.624;2022-07-23T04:06:11;16.85;;;5.82;;
68386;SDS011;55338;43.062;25.624;2022-07-23T04:08:37;17.70;;;5.90;;
68386;SDS011;55338;43.062;25.624;2022-07-23T04:11:03;15.77;;;6.20;;
68386;SDS011;55338;43.062;25.624;2022-07-23T04:13:29;19.08;;;5.90;;
68386;SDS011;55338;43.062;25.624;2022-07-23T04:15:55;13.93;;;4.77;;
68386;SDS011;55338;43.062;25.624;2022-07-23T04:18:22;11.95;;;5.10;;
68386;SDS011;55338;43.062;25.624;2022-07-23T04:20:50;9.77;;;3.97;;
68386;SDS011;55338;43.062;25.624;2022-07-23T04:23:16;9.88;;;4.80;;
68386;SDS011;55338;43.062;25.624;2022-07-23T04:25:42;7.57;;;3.80;;
68386;SDS011;55338;43.062;25.624;2022-07-23T04:28:08;8.98;;;4.07;;
68386;SDS011;55338;43.062;25.624;2022-07-23T04:30:34;9.00;;;4.45;;
68386;SDS011;55338;43.062;25.624;2022-07-23T04:33:00;9.03;;;4.43;;
68386;SDS011;55338;43.062;25.624;2022-07-23T04:35:26;10.32;;;5.03;;
68386;SDS011;55338;43.062;25.624;2022-07-23T04:37:51;24.15;;;5.90;;
68386;SDS011;55338;43.062;25.624;2022-07-23T04:40:17;11.50;;;6.03;;
68386;SDS011;55338;43.062;25.624;2022-07-23T04:42:43;16.48;;;6.53;;
68386;SDS011;55338;43.062;25.624;2022-07-23T04:45:09;14.17;;;6.53;;
68386;SDS011;55338;43.062;25.624;2022-07-23T04:47:35;14.98;;;6.15;;
68386;SDS011;55338;43.062;25.624;2022-07-23T04:50:00;10.20;;;4.88;;
68386;SDS011;55338;43.062;25.624;2022-07-23T04:52:26;13.53;;;6.53;;
68386;SDS011;55338;43.062;25.624;2022-07-23T04:54:52;27.15;;;10.35;;
68386;SDS011;55338;43.062;25.624;2022-07-23T04:57:18;22.57;;;10.70;;
68386;SDS011;55338;43.062;25.624;2022-07-23T04:59:43;24.70;;;10.23;;
68386;SDS011;55338;43.062;25.624;2022-07-23T05:02:09;22.30;;;11.23;;
68386;SDS011;55338;43.062;25.624;2022-07-23T05:04:35;22.60;;;11.40;;
68386;SDS011;55338;43.062;25.624;2022-07-23T05:07:01;36.17;;;15.63;;
68386;SDS011;55338;43.062;25.624;2022-07-23T05:09:26;42.15;;;17.17;;
68386;SDS011;55338;43.062;25.624;2022-07-23T05:11:52;34.65;;;17.13;;
68386;SDS011;55338;43.062;25.624;2022-07-23T05:14:18;24.17;;;13.57;;
68386;SDS011;55338;43.062;25.624;2022-07-23T05:16:44;32.45;;;16.70;;
68386;SDS011;55338;43.062;25.624;2022-07-23T05:19:09;46.47;;;24.87;;
68386;SDS011;55338;43.062;25.624;2022-07-23T05:21:35;43.72;;;24.02;;
68386;SDS011;55338;43.062;25.624;2022-07-23T05:24:01;39.87;;;23.33;;
68386;SDS011;55338;43.062;25.624;2022-07-23T05:26:27;34.30;;;22.90;;
68386;SDS011;55338;43.062;25.624;2022-07-23T05:28:52;34.10;;;21.13;;
68386;SDS011;55338;43.062;25.624;2022-07-23T05:31:18;40.42;;;22.63;;
68386;SDS011;55338;43.062;25.624;2022-07-23T05:33:44;37.37;;;21.13;;
68386;SDS011;55338;43.062;25.624;2022-07-23T05:36:10;25.65;;;18.08;;
68386;SDS011;55338;43.062;25.624;2022-07-23T05:38:36;32.60;;;17.55;;
68386;SDS011;55338;43.062;25.624;2022-07-23T05:41:02;26.27;;;15.17;;
68386;SDS011;55338;43.062;25.624;2022-07-23T05:43:28;26.10;;;16.48;;
68386;SDS011;55338;43.062;25.624;2022-07-23T05:45:54;31.70;;;16.25;;
68386;SDS011;55338;43.062;25.624;2022-07-23T05:48:20;30.15;;;17.70;;
68386;SDS011;55338;43.062;25.624;2022-07-23T05:50:46;23.27;;;15.67;;
68386;SDS011;55338;43.062;25.624;2022-07-23T05:53:12;35.88;;;17.25;;
68386;SDS011;55338;43.062;25.624;2022-07-23T05:55:38;36.22;;;16.15;;
68386;SDS011;55338;43.062;25.624;2022-07-23T05:58:04;22.13;;;13.50;;
68386;SDS011;55338;43.062;25.624;2022-07-23T06:00:30;22.77;;;12.40;;
68386;SDS011;55338;43.062;25.624;2022-07-23T06:02:56;27.35;;;13.48;;
68386;SDS011;55338;43.062;25.624;2022-07-23T06:05:22;22.27;;;13.30;;
68386;SDS011;55338;43.062;25.624;2022-07-23T06:07:48;20.13;;;12.47;;
68386;SDS011;55338;43.062;25.624;2022-07-23T06:10:14;20.15;;;13.13;;
68386;SDS011;55338;43.062;25.624;2022-07-23T06:12:40;22.10;;;13.93;;
68386;SDS011;55338;43.062;25.624;2022-07-23T06:15:06;26.08;;;14.40;;
68386;SDS011;55338;43.062;25.624;2022-07-23T06:17:32;25.37;;;14.30;;
68386;SDS011;55338;43.062;25.624;2022-07-23T06:19:58;20.92;;;12.77;;
68386;SDS011;55338;43.062;25.624;2022-07-23T06:22:24;24.58;;;15.27;;
68386;SDS011;55338;43.062;25.624;2022-07-23T06:24:50;18.47;;;12.97;;
68386;SDS011;55338;43.062;25.624;2022-07-23T06:27:16;17.70;;;11.70;;
68386;SDS011;55338;43.062;25.624;2022-07-23T06:29:43;21.10;;;14.30;;
68386;SDS011;55338;43.062;25.624;2022-07-23T06:32:09;23.37;;;15.60;;
68386;SDS011;55338;43.062;25.624;2022-07-23T06:34:34;27.08;;;16.83;;
68386;SDS011;55338;43.062;25.624;2022-07-23T06:37:00;28.05;;;17.65;;
68386;SDS011;55338;43.062;25.624;2022-07-23T06:39:26;25.80;;;17.20;;
68386;SDS011;55338;43.062;25.624;2022-07-23T06:41:52;22.35;;;15.73;;
68386;SDS011;55338;43.062;25.624;2022-07-23T06:44:18;23.93;;;14.50;;
68386;SDS011;55338;43.062;25.624;2022-07-23T06:46:44;21.00;;;14.37;;
68386;SDS011;55338;43.062;25.624;2022-07-23T06:49:09;24.02;;;14.20;;
68386;SDS011;55338;43.062;25.624;2022-07-23T06:51:35;16.97;;;11.20;;
68386;SDS011;55338;43.062;25.624;2022-07-23T06:54:01;16.90;;;9.73;;
68386;SDS011;55338;43.062;25.624;2022-07-23T06:56:28;14.90;;;10.40;;
68386;SDS011;55338;43.062;25.624;2022-07-23T06:58:53;16.70;;;11.13;;
68386;SDS011;55338;43.062;25.624;2022-07-23T07:01:19;14.23;;;9.48;;
68386;SDS011;55338;43.062;25.624;2022-07-23T07:03:46;19.27;;;10.30;;
68386;SDS011;55338;43.062;25.624;2022-07-23T07:06:12;14.65;;;9.90;;
68386;SDS011;55338;43.062;25.624;2022-07-23T07:08:38;13.57;;;8.37;;
68386;SDS011;55338;43.062;25.624;2022-07-23T07:11:04;13.80;;;8.20;;
68386;SDS011;55338;43.062;25.624;2022-07-23T07:13:30;15.35;;;8.65;;
68386;SDS011;55338;43.062;25.624;2022-07-23T07:15:56;15.07;;;8.67;;
68386;SDS011;55338;43.062;25.624;2022-07-23T07:18:22;13.63;;;8.27;;
68386;SDS011;55338;43.062;25.624;2022-07-23T07:20:48;11.63;;;7.10;;
68386;SDS011;55338;43.062;25.624;2022-07-23T07:23:14;14.25;;;7.30;;
68386;SDS011;55338;43.062;25.624;2022-07-23T07:25:40;9.77;;;6.00;;
68386;SDS011;55338;43.062;25.624;2022-07-23T07:28:06;11.27;;;6.40;;
68386;SDS011;55338;43.062;25.624;2022-07-23T07:30:31;11.43;;;6.80;;
68386;SDS011;55338;43.062;25.624;2022-07-23T07:32:57;9.82;;;6.93;;
68386;SDS011;55338;43.062;25.624;2022-07-23T07:35:24;14.63;;;7.60;;
68386;SDS011;55338;43.062;25.624;2022-07-23T07:37:50;20.90;;;13.70;;
68386;SDS011;55338;43.062;25.624;2022-07-23T07:40:16;26.63;;;13.97;;
68386;SDS011;55338;43.062;25.624;2022-07-23T07:42:46;20.00;;;13.70;;
68386;SDS011;55338;43.062;25.624;2022-07-23T07:45:13;21.88;;;15.77;;
68386;SDS011;55338;43.062;25.624;2022-07-23T07:47:40;26.40;;;14.63;;
68386;SDS011;55338;43.062;25.624;2022-07-23T07:50:06;21.73;;;14.02;;
68386;SDS011;55338;43.062;25.624;2022-07-23T07:52:33;20.70;;;12.07;;
68386;SDS011;55338;43.062;25.624;2022-07-23T07:55:02;15.32;;;10.30;;
68386;SDS011;55338;43.062;25.624;2022-07-23T07:57:32;13.32;;;7.63;;
68386;SDS011;55338;43.062;25.624;2022-07-23T07:59:58;12.90;;;8.88;;
68386;SDS011;55338;43.062;25.624;2022-07-23T08:02:23;16.27;;;10.47;;
68386;SDS011;55338;43.062;25.624;2022-07-23T08:04:49;18.13;;;11.15;;
68386;SDS011;55338;43.062;25.624;2022-07-23T08:07:15;17.55;;;12.10;;
68386;SDS011;55338;43.062;25.624;2022-07-23T08:09:41;31.90;;;8.87;;
68386;SDS011;55338;43.062;25.624;2022-07-23T08:12:07;11.70;;;6.57;;
68386;SDS011;55338;43.062;25.624;2022-07-23T08:14:33;9.70;;;5.68;;
68386;SDS011;55338;43.062;25.624;2022-07-23T08:16:59;9.23;;;5.20;;
68386;SDS011;55338;43.062;25.624;2022-07-23T08:19:25;16.23;;;5.38;;
68386;SDS011;55338;43.062;25.624;2022-07-23T08:21:50;12.77;;;5.22;;
68386;SDS011;55338;43.062;25.624;2022-07-23T08:24:16;14.77;;;5.63;;
68386;SDS011;55338;43.062;25.624;2022-07-23T08:26:42;12.68;;;7.40;;
68386;SDS011;55338;43.062;25.624;2022-07-23T08:29:08;11.30;;;8.85;;
68386;SDS011;55338;43.062;25.624;2022-07-23T08:31:34;14.00;;;7.70;;
68386;SDS011;55338;43.062;25.624;2022-07-23T08:34:00;11.15;;;7.97;;
68386;SDS011;55338;43.062;25.624;2022-07-23T08:36:27;9.50;;;7.85;;
68386;SDS011;55338;43.062;25.624;2022-07-23T08:38:57;11.10;;;8.18;;
68386;SDS011;55338;43.062;25.624;2022-07-23T08:41:28;12.77;;;7.00;;
68386;SDS011;55338;43.062;25.624;2022-07-23T08:43:54;10.85;;;7.85;;
68386;SDS011;55338;43.062;25.624;2022-07-23T08:46:21;11.63;;;7.80;;
68386;SDS011;55338;43.062;25.624;2022-07-23T08:48:49;10.05;;;6.90;;
68386;SDS011;55338;43.062;25.624;2022-07-23T08:51:15;9.85;;;7.57;;
68386;SDS011;55338;43.062;25.624;2022-07-23T08:53:42;10.07;;;6.93;;
68386;SDS011;55338;43.062;25.624;2022-07-23T08:56:09;10.20;;;6.57;;
68386;SDS011;55338;43.062;25.624;2022-07-23T08:58:35;9.73;;;6.40;;
68386;SDS011;55338;43.062;25.624;2022-07-23T09:01:00;11.53;;;7.50;;
68386;SDS011;55338;43.062;25.624;2022-07-23T09:03:30;11.52;;;6.60;;
68386;SDS011;55338;43.062;25.624;2022-07-23T09:05:58;8.25;;;6.15;;
68386;SDS011;55338;43.062;25.624;2022-07-23T09:08:34;10.05;;;6.40;;
68386;SDS011;55338;43.062;25.624;2022-07-23T09:11:09;13.98;;;6.55;;
68386;SDS011;55338;43.062;25.624;2022-07-23T09:18:51;8.27;;;5.90;;
68386;SDS011;55338;43.062;25.624;2022-07-23T09:23:56;11.02;;;5.63;;
68386;SDS011;55338;43.062;25.624;2022-07-23T09:29:10;8.43;;;5.75;;
68386;SDS011;55338;43.062;25.624;2022-07-23T09:31:50;8.35;;;5.13;;
68386;SDS011;55338;43.062;25.624;2022-07-23T09:34:24;10.70;;;5.43;;
68386;SDS011;55338;43.062;25.624;2022-07-23T09:37:13;7.53;;;6.22;;
68386;SDS011;55338;43.062;25.624;2022-07-23T09:39:41;7.17;;;5.10;;
68386;SDS011;55338;43.062;25.624;2022-07-23T09:42:21;9.80;;;6.32;;
68386;SDS011;55338;43.062;25.624;2022-07-23T09:44:52;7.65;;;5.18;;
68386;SDS011;55338;43.062;25.624;2022-07-23T09:47:19;12.20;;;5.70;;
68386;SDS011;55338;43.062;25.624;2022-07-23T09:55:13;11.95;;;5.32;;
68386;SDS011;55338;43.062;25.624;2022-07-23T09:57:40;9.35;;;5.57;;
68386;SDS011;55338;43.062;25.624;2022-07-23T10:00:07;9.48;;;6.22;;
68386;SDS011;55338;43.062;25.624;2022-07-23T10:02:36;10.23;;;5.45;;
68386;SDS011;55338;43.062;25.624;2022-07-23T10:05:02;9.50;;;5.77;;
68386;SDS011;55338;43.062;25.624;2022-07-23T10:07:31;10.57;;;6.30;;
68386;SDS011;55338;43.062;25.624;2022-07-23T10:10:00;7.07;;;5.13;;
68386;SDS011;55338;43.062;25.624;2022-07-23T10:12:27;7.70;;;6.53;;
68386;SDS011;55338;43.062;25.624;2022-07-23T10:15:02;11.20;;;5.95;;
68386;SDS011;55338;43.062;25.624;2022-07-23T10:17:30;11.57;;;5.50;;
68386;SDS011;55338;43.062;25.624;2022-07-23T10:19:56;8.20;;;5.50;;
68386;SDS011;55338;43.062;25.624;2022-07-23T10:22:23;11.50;;;5.38;;
68386;SDS011;55338;43.062;25.624;2022-07-23T10:30:30;8.25;;;6.28;;
68386;SDS011;55338;43.062;25.624;2022-07-23T10:33:23;10.98;;;7.05;;
68386;SDS011;55338;43.062;25.624;2022-07-23T10:41:19;8.63;;;6.07;;
68386;SDS011;55338;43.062;25.624;2022-07-23T10:44:10;11.20;;;5.95;;
68386;SDS011;55338;43.062;25.624;2022-07-23T10:46:56;11.95;;;6.93;;
68386;SDS011;55338;43.062;25.624;2022-07-23T10:49:33;12.95;;;5.78;;
68386;SDS011;55338;43.062;25.624;2022-07-23T10:54:44;10.00;;;6.80;;
68386;SDS011;55338;43.062;25.624;2022-07-23T10:57:11;11.60;;;6.32;;
68386;SDS011;55338;43.062;25.624;2022-07-23T11:02:36;9.20;;;6.00;;
68386;SDS011;55338;43.062;25.624;2022-07-23T11:05:05;10.63;;;5.93;;
68386;SDS011;55338;43.062;25.624;2022-07-23T11:07:31;8.50;;;5.70;;
68386;SDS011;55338;43.062;25.624;2022-07-23T11:09:57;9.20;;;6.18;;
68386;SDS011;55338;43.062;25.624;2022-07-23T11:25:08;8.93;;;6.20;;
68386;SDS011;55338;43.062;25.624;2022-07-23T11:27:46;11.93;;;6.50;;
68386;SDS011;55338;43.062;25.624;2022-07-23T11:32:54;7.25;;;6.10;;
68386;SDS011;55338;43.062;25.624;2022-07-23T11:35:44;7.28;;;5.50;;
68386;SDS011;55338;43.062;25.624;2022-07-23T11:40:46;10.67;;;6.50;;
68386;SDS011;55338;43.062;25.624;2022-07-23T11:43:14;8.95;;;5.90;;
68386;SDS011;55338;43.062;25.624;2022-07-23T11:45:48;10.07;;;6.03;;
68386;SDS011;55338;43.062;25.624;2022-07-23T11:48:21;9.70;;;5.70;;
68386;SDS011;55338;43.062;25.624;2022-07-23T11:50:55;8.93;;;6.47;;
68386;SDS011;55338;43.062;25.624;2022-07-23T11:53:22;10.83;;;5.80;;
68386;SDS011;55338;43.062;25.624;2022-07-23T11:56:10;12.30;;;6.10;;
68386;SDS011;55338;43.062;25.624;2022-07-23T11:58:37;11.02;;;6.35;;
68386;SDS011;55338;43.062;25.624;2022-07-23T12:01:03;10.30;;;6.10;;
68386;SDS011;55338;43.062;25.624;2022-07-23T12:03:30;12.68;;;6.40;;
68386;SDS011;55338;43.062;25.624;2022-07-23T12:05:56;9.43;;;5.33;;
68386;SDS011;55338;43.062;25.624;2022-07-23T12:08:23;15.27;;;5.95;;
68386;SDS011;55338;43.062;25.624;2022-07-23T12:10:49;9.85;;;5.97;;
68386;SDS011;55338;43.062;25.624;2022-07-23T12:13:15;8.95;;;5.50;;
68386;SDS011;55338;43.062;25.624;2022-07-23T12:15:44;11.33;;;6.20;;
68386;SDS011;55338;43.062;25.624;2022-07-23T12:18:15;8.23;;;5.40;;
68386;SDS011;55338;43.062;25.624;2022-07-23T12:20:43;10.02;;;6.00;;
68386;SDS011;55338;43.062;25.624;2022-07-23T12:23:11;8.45;;;5.65;;
68386;SDS011;55338;43.062;25.624;2022-07-23T12:25:40;13.43;;;5.63;;
68386;SDS011;55338;43.062;25.624;2022-07-23T12:30:39;7.85;;;5.90;;
68386;SDS011;55338;43.062;25.624;2022-07-23T12:33:06;10.60;;;6.18;;
68386;SDS011;55338;43.062;25.624;2022-07-23T12:35:34;10.15;;;6.00;;
68386;SDS011;55338;43.062;25.624;2022-07-23T12:38:10;9.38;;;6.10;;
68386;SDS011;55338;43.062;25.624;2022-07-23T12:40:47;9.13;;;6.17;;
68386;SDS011;55338;43.062;25.624;2022-07-23T12:53:37;9.83;;;6.27;;
68386;SDS011;55338;43.062;25.624;2022-07-23T12:56:08;10.65;;;6.57;;
68386;SDS011;55338;43.062;25.624;2022-07-23T13:04:00;11.68;;;6.82;;
68386;SDS011;55338;43.062;25.624;2022-07-23T13:06:30;9.67;;;5.97;;
68386;SDS011;55338;43.062;25.624;2022-07-23T13:08:58;11.63;;;7.07;;
68386;SDS011;55338;43.062;25.624;2022-07-23T13:11:24;12.10;;;6.20;;
68386;SDS011;55338;43.062;25.624;2022-07-23T13:13:50;7.53;;;6.32;;
68386;SDS011;55338;43.062;25.624;2022-07-23T13:16:17;11.43;;;6.30;;
68386;SDS011;55338;43.062;25.624;2022-07-23T13:18:43;12.63;;;6.70;;
68386;SDS011;55338;43.062;25.624;2022-07-23T13:21:08;12.23;;;6.55;;
68386;SDS011;55338;43.062;25.624;2022-07-23T13:23:35;12.13;;;5.63;;
68386;SDS011;55338;43.062;25.624;2022-07-23T13:26:01;8.00;;;5.93;;
68386;SDS011;55338;43.062;25.624;2022-07-23T13:28:27;9.33;;;5.50;;
68386;SDS011;55338;43.062;25.624;2022-07-23T13:30:53;11.50;;;5.55;;
68386;SDS011;55338;43.062;25.624;2022-07-23T13:33:19;9.55;;;5.38;;
68386;SDS011;55338;43.062;25.624;2022-07-23T13:35:46;9.17;;;6.07;;
68386;SDS011;55338;43.062;25.624;2022-07-23T13:38:13;10.30;;;5.82;;
68386;SDS011;55338;43.062;25.624;2022-07-23T13:40:40;9.48;;;6.82;;
68386;SDS011;55338;43.062;25.624;2022-07-23T13:43:08;11.02;;;7.38;;
68386;SDS011;55338;43.062;25.624;2022-07-23T13:45:35;11.38;;;6.25;;
68386;SDS011;55338;43.062;25.624;2022-07-23T13:48:01;7.73;;;6.40;;
68386;SDS011;55338;43.062;25.624;2022-07-23T13:50:28;10.63;;;6.10;;
68386;SDS011;55338;43.062;25.624;2022-07-23T13:52:53;11.25;;;6.85;;
68386;SDS011;55338;43.062;25.624;2022-07-23T13:55:19;11.17;;;6.60;;
68386;SDS011;55338;43.062;25.624;2022-07-23T13:57:45;11.13;;;6.38;;
68386;SDS011;55338;43.062;25.624;2022-07-23T14:00:11;12.00;;;6.53;;
68386;SDS011;55338;43.062;25.624;2022-07-23T14:02:37;9.43;;;5.95;;
68386;SDS011;55338;43.062;25.624;2022-07-23T14:05:05;10.40;;;6.22;;
68386;SDS011;55338;43.062;25.624;2022-07-23T14:07:33;11.63;;;6.07;;
68386;SDS011;55338;43.062;25.624;2022-07-23T14:10:00;11.57;;;6.00;;
68386;SDS011;55338;43.062;25.624;2022-07-23T14:12:26;8.87;;;5.73;;
68386;SDS011;55338;43.062;25.624;2022-07-23T14:14:52;10.32;;;5.40;;
68386;SDS011;55338;43.062;25.624;2022-07-23T14:17:18;15.20;;;6.05;;
68386;SDS011;55338;43.062;25.624;2022-07-23T14:19:45;12.05;;;7.30;;
68386;SDS011;55338;43.062;25.624;2022-07-23T14:22:10;7.03;;;5.50;;
68386;SDS011;55338;43.062;25.624;2022-07-23T14:24:36;8.65;;;5.60;;
68386;SDS011;55338;43.062;25.624;2022-07-23T14:27:02;6.77;;;5.77;;
68386;SDS011;55338;43.062;25.624;2022-07-23T14:29:29;10.57;;;5.65;;
68386;SDS011;55338;43.062;25.624;2022-07-23T14:31:56;8.55;;;6.22;;
68386;SDS011;55338;43.062;25.624;2022-07-23T14:34:22;10.75;;;5.25;;
68386;SDS011;55338;43.062;25.624;2022-07-23T14:36:49;12.23;;;6.25;;
68386;SDS011;55338;43.062;25.624;2022-07-23T14:39:14;8.57;;;5.97;;
68386;SDS011;55338;43.062;25.624;2022-07-23T14:41:40;9.90;;;5.93;;
68386;SDS011;55338;43.062;25.624;2022-07-23T14:44:07;10.45;;;5.80;;
68386;SDS011;55338;43.062;25.624;2022-07-23T14:46:33;9.47;;;5.73;;
68386;SDS011;55338;43.062;25.624;2022-07-23T14:48:59;7.70;;;5.50;;
68386;SDS011;55338;43.062;25.624;2022-07-23T14:51:25;8.13;;;5.63;;
68386;SDS011;55338;43.062;25.624;2022-07-23T14:53:50;8.98;;;5.65;;
68386;SDS011;55338;43.062;25.624;2022-07-23T14:56:16;9.75;;;6.05;;
68386;SDS011;55338;43.062;25.624;2022-07-23T14:58:42;14.60;;;5.57;;
68386;SDS011;55338;43.062;25.624;2022-07-23T15:01:08;13.05;;;6.30;;
68386;SDS011;55338;43.062;25.624;2022-07-23T15:03:34;11.73;;;5.63;;
68386;SDS011;55338;43.062;25.624;2022-07-23T15:05:59;13.77;;;6.45;;
68386;SDS011;55338;43.062;25.624;2022-07-23T15:08:25;9.43;;;5.77;;
68386;SDS011;55338;43.062;25.624;2022-07-23T15:10:51;9.53;;;5.60;;
68386;SDS011;55338;43.062;25.624;2022-07-23T15:13:17;10.27;;;5.63;;
68386;SDS011;55338;43.062;25.624;2022-07-23T15:15:43;10.50;;;5.47;;
68386;SDS011;55338;43.062;25.624;2022-07-23T15:18:10;10.53;;;4.60;;
68386;SDS011;55338;43.062;25.624;2022-07-23T15:20:36;8.77;;;5.38;;
68386;SDS011;55338;43.062;25.624;2022-07-23T15:23:03;9.32;;;4.80;;
68386;SDS011;55338;43.062;25.624;2022-07-23T15:25:30;8.85;;;4.88;;
68386;SDS011;55338;43.062;25.624;2022-07-23T15:27:57;13.53;;;5.70;;
68386;SDS011;55338;43.062;25.624;2022-07-23T15:30:26;9.23;;;5.15;;
68386;SDS011;55338;43.062;25.624;2022-07-23T15:32:52;7.10;;;5.13;;